This is the latest recevied weather packets stored in our database for station/object KR4BRU. If no packets are shown the sender has not sent any weather packets the latest 10 day(s).
| Time | Temp. | Humidity | Pressure | Rain* | Wind** | Luminosity | Snow |
|---|---|---|---|---|---|---|---|
| 1777813761 | 13.89° C | 60% | 1018.5 hPa | 0 mm | - | 294 W/m² | - |
| 1777813161 | 12.22° C | 65% | 1018.5 hPa | 0 mm | - | 209 W/m² | - |
| 1777812561 | 11.11° C | 70% | 1018.1 hPa | 0 mm | - | 62 W/m² | - |
| 1777811957 | 10.56° C | 71% | 1018.4 hPa | 0 mm | - | 48 W/m² | - |
| 1777811356 | 10° C | 73% | 1018.2 hPa | 0 mm | - | 44 W/m² | - |
| 1777810757 | 9.44° C | 81% | 1018.3 hPa | 0 mm | - | 41 W/m² | - |
| 1777810155 | 8.33° C | 86% | 1018.2 hPa | 0 mm | - | 37 W/m² | - |
| 1777809550 | 7.78° C | 86% | 1017.9 hPa | 0 mm | - | 33 W/m² | - |
| 1777808946 | 7.78° C | 86% | 1018.1 hPa | 0 mm | - | 29 W/m² | - |
| 1777808345 | 7.22° C | 87% | 1017.9 hPa | 0 mm | - | 24 W/m² | - |
| 1777807740 | 7.22° C | 87% | 1017.8 hPa | 0 mm | - | 20 W/m² | - |
| 1777807139 | 7.22° C | 87% | 1017.6 hPa | 0 mm | - | 16 W/m² | - |
| 1777806539 | 6.67° C | 87% | 1017.4 hPa | 0 mm | - | 11 W/m² | - |
| 1777805938 | 6.67° C | 86% | 1017.5 hPa | 0 mm | - | 6 W/m² | - |
| 1777805332 | 6.67° C | 87% | 1017.1 hPa | 0 mm | - | 2 W/m² | - |
| 1777804733 | 6.67° C | 87% | 1017.2 hPa | 0 mm | - | 1 W/m² | - |
| 1777804128 | 6.67° C | 87% | 1017.1 hPa | 0 mm | - | 0 W/m² | - |
| 1777803526 | 6.67° C | 86% | 1017.1 hPa | 0 mm | - | 0 W/m² | - |
| 1777802920 | 7.22° C | 87% | 1017 hPa | 0 mm | - | 0 W/m² | - |
| 1777802316 | 6.67° C | 87% | 1016.8 hPa | 0 mm | - | 0 W/m² | - |
| 1777801711 | 6.67° C | 86% | 1016.7 hPa | 0 mm | - | 0 W/m² | - |
| 1777801111 | 7.22° C | 86% | 1016.5 hPa | 0 mm | - | 0 W/m² | - |
| 1777800508 | 6.67° C | 86% | 1016.5 hPa | 0 mm | - | 0 W/m² | - |
| 1777799906 | 6.67° C | 85% | 1016.5 hPa | 0 mm | - | 0 W/m² | - |
| 1777799306 | 6.67° C | 85% | 1016.3 hPa | 0 mm | - | 0 W/m² | - |
* Rain latest hour (hover to see other rain measurements)
** Current wind speed in m/s (hover to see current wind gust speed)